Terminal Aerodrome Forecast
Issued by NWS

Current Version | Previous Version | Graphics & Text | Print | Product List | Glossary On
Versions: 1 2 3 4 5 6 7 8 9 10 11 12 13 14 15 16 17 18
000
FTUS41 KRNK 211730
TAFLWB
TAF
KLWB 211730Z 2118/2218 27010KT P6SM VCTS BKN050CB
     FM211900 28010KT P6SM VCTS OVC035CB
     FM212100 28009KT 5SM -TSRA BKN025CB
     FM212300 29006KT P6SM VCSH BKN045
     FM220200 VRB03KT 4SM -SHRA OVC040=

USA.gov is the U.S. government's official web portal to all federal, state and local government web resources and services.